createdAt,value
2023-04-10T00:02:51.437Z,40.00
2023-04-10T00:07:52.225Z,40.20
2023-04-10T00:12:55.994Z,39.03
2023-04-10T00:17:56.568Z,36.72
2023-04-10T00:22:57.232Z,35.88
2023-04-10T00:27:59.156Z,35.83
2023-04-10T00:32:59.896Z,35.40
2023-04-10T00:38:00.791Z,39.65
2023-04-10T00:43:02.999Z,34.95
2023-04-10T00:48:04.488Z,40.05
2023-04-10T00:53:05.225Z,39.78
2023-04-10T00:58:07.366Z,38.42
2023-04-10T01:03:08.832Z,38.70
2023-04-10T01:08:17.309Z,39.92
2023-04-10T01:13:23.936Z,36.95
2023-04-10T01:18:31.184Z,37.47
2023-04-10T01:23:53.836Z,40.50
2023-04-10T01:29:02.047Z,39.60
2023-04-10T01:34:09.519Z,43.03
2023-04-10T01:39:13.477Z,42.95
2023-04-10T01:44:16.839Z,44.95
2023-04-10T01:49:19.079Z,45.45
2023-04-10T01:54:19.996Z,43.00
2023-04-10T01:59:23.099Z,43.63
2023-04-10T02:04:23.796Z,41.00
2023-04-10T02:09:32.242Z,46.22
2023-04-10T02:14:37.361Z,44.25
2023-04-10T02:19:39.590Z,44.42
2023-04-10T02:24:40.214Z,44.72
2023-04-10T02:29:42.080Z,43.65
2023-04-10T02:34:43.820Z,43.05
2023-04-10T02:39:44.437Z,46.92
2023-04-10T02:44:48.188Z,45.88
2023-04-10T02:49:49.033Z,48.47
2023-04-10T02:54:51.884Z,48.80
2023-04-10T02:59:53.863Z,44.45
2023-04-10T03:04:57.081Z,47.25
2023-04-10T03:09:58.258Z,48.58
2023-04-10T03:15:00.499Z,41.25
2023-04-10T03:20:01.179Z,47.10
2023-04-10T03:25:02.493Z,44.92
2023-04-10T03:30:06.266Z,51.30
2023-04-10T03:35:13.586Z,45.15
2023-04-10T03:40:14.429Z,48.17
2023-04-10T03:45:16.575Z,47.58
2023-04-10T03:50:17.324Z,51.85
2023-04-10T03:55:24.253Z,51.97
2023-04-10T04:00:27.964Z,47.45
2023-04-10T04:05:35.998Z,46.35
2023-04-10T04:11:02.769Z,43.55
2023-04-10T04:16:12.143Z,45.15
2023-04-10T04:21:23.203Z,44.45
2023-04-10T04:26:39.074Z,50.25
2023-04-10T04:32:01.466Z,46.08
2023-04-10T04:37:34.372Z,41.55
2023-04-10T04:42:49.949Z,41.85
2023-04-10T04:48:18.588Z,45.15
2023-04-10T04:53:37.485Z,42.35
2023-04-10T04:58:48.768Z,43.47
2023-04-10T05:03:50.832Z,38.28
2023-04-10T05:09:26.742Z,37.78
2023-04-10T05:14:50.696Z,42.75
2023-04-10T05:20:05.278Z,40.70
2023-04-10T05:25:31.671Z,36.35
2023-04-10T05:30:53.629Z,38.42
2023-04-10T05:36:14.407Z,37.92
2023-04-10T05:41:26.770Z,37.85
2023-04-10T05:46:45.879Z,41.50
2023-04-10T05:51:58.966Z,33.88
2023-04-10T05:57:18.068Z,36.80
2023-04-10T06:02:19.211Z,33.03
2023-04-10T06:07:21.924Z,34.30
2023-04-10T06:12:22.649Z,32.67
2023-04-10T06:17:25.665Z,29.10
2023-04-10T06:22:28.623Z,29.90
2023-04-10T06:27:29.955Z,29.92
2023-04-10T06:32:31.483Z,32.38
2023-04-10T06:37:33.647Z,29.17
2023-04-10T06:42:37.287Z,28.25
2023-04-10T06:47:46.626Z,33.17
2023-04-10T06:52:48.834Z,36.25
2023-04-10T06:57:49.419Z,28.33
2023-04-10T07:02:50.164Z,30.50
2023-04-10T07:07:52.128Z,30.33
2023-04-10T07:12:52.795Z,28.73
2023-04-10T07:17:53.457Z,31.83
2023-04-10T07:22:55.439Z,28.00
2023-04-10T07:27:56.035Z,27.38
2023-04-10T07:32:57.529Z,28.33
2023-04-10T07:37:59.766Z,32.30
2023-04-10T07:43:00.330Z,30.55
2023-04-10T07:48:02.189Z,29.08
2023-04-10T07:53:07.802Z,25.52
2023-04-10T07:58:08.539Z,28.30
2023-04-10T08:03:09.304Z,28.30
2023-04-10T08:08:11.482Z,29.95
2023-04-10T08:13:12.615Z,26.60
2023-04-10T08:18:13.203Z,29.52
2023-04-10T08:23:20.420Z,23.02
2023-04-10T08:28:21.564Z,24.48
2023-04-10T08:33:22.143Z,26.55
2023-04-10T08:38:25.070Z,29.85
2023-04-10T08:43:27.122Z,25.58
2023-04-10T08:48:36.507Z,28.83
2023-04-10T08:53:41.854Z,28.95
2023-04-10T08:58:42.773Z,34.22
2023-04-10T09:03:43.559Z,30.13
2023-04-10T09:08:45.595Z,25.17
2023-04-10T09:13:46.412Z,27.52
2023-04-10T09:18:49.427Z,20.55
2023-04-10T09:24:01.694Z,25.50
2023-04-10T09:29:04.254Z,21.20
2023-04-10T09:34:12.081Z,25.20
2023-04-10T09:39:14.083Z,21.42
2023-04-10T09:44:14.696Z,16.75
2023-04-10T09:49:15.760Z,19.75
2023-04-10T09:54:17.774Z,15.20
2023-04-10T09:59:19.701Z,14.00
2023-04-10T10:04:20.554Z,17.42
2023-04-10T10:09:22.610Z,8.93
2023-04-10T10:14:26.864Z,17.40
2023-04-10T10:19:32.674Z,17.35
2023-04-10T10:24:36.816Z,16.75
2023-04-10T10:29:39.387Z,15.02
2023-04-10T10:34:40.302Z,13.50
2023-04-10T10:39:54.284Z,14.32
2023-04-10T10:45:02.066Z,14.45
2023-04-10T10:50:04.882Z,12.57
2023-04-10T10:55:35.009Z,14.90
2023-04-10T11:01:06.792Z,16.70
2023-04-10T11:06:09.469Z,14.25
2023-04-10T11:11:15.730Z,15.48
2023-04-10T11:16:16.613Z,13.05
2023-04-10T11:21:18.689Z,13.00
2023-04-10T11:26:38.281Z,12.65
2023-04-10T11:31:39.366Z,16.30
2023-04-10T11:36:41.811Z,14.63
2023-04-10T11:41:45.000Z,16.33
2023-04-10T11:46:47.379Z,13.98
2023-04-10T11:51:49.392Z,14.43
2023-04-10T11:56:59.615Z,18.63
2023-04-10T12:02:09.458Z,17.08
2023-04-10T12:07:10.580Z,13.10
2023-04-10T12:12:12.496Z,16.65
2023-04-10T12:17:13.874Z,19.05
2023-04-10T12:22:14.516Z,14.95
2023-04-10T12:27:20.866Z,19.45
2023-04-10T12:32:22.255Z,14.75
2023-04-10T12:37:22.884Z,13.30
2023-04-10T12:42:27.136Z,12.60
2023-04-10T12:47:29.481Z,13.68
2023-04-10T12:52:31.493Z,13.38
2023-04-10T12:57:33.405Z,12.20
2023-04-10T13:02:34.283Z,9.27
2023-04-10T13:07:35.127Z,10.25
2023-04-10T13:12:38.629Z,9.88
2023-04-10T13:17:40.915Z,9.93
2023-04-10T13:22:41.567Z,13.43
2023-04-10T13:27:43.485Z,10.88
2023-04-10T13:32:44.215Z,8.90
2023-04-10T13:37:46.090Z,7.30
2023-04-10T13:42:48.417Z,7.53
2023-04-10T13:47:49.161Z,9.13
2023-04-10T13:52:51.579Z,6.63
2023-04-10T13:57:54.931Z,7.70
2023-04-10T14:02:55.871Z,9.10
2023-04-10T14:07:57.088Z,7.47
2023-04-10T14:12:59.054Z,6.03
2023-04-10T14:17:59.775Z,5.88
2023-04-10T14:23:00.382Z,6.63
2023-04-10T14:28:02.437Z,4.80
2023-04-10T14:33:03.195Z,5.47
2023-04-10T14:38:04.174Z,6.28
2023-04-10T14:43:06.140Z,5.57
2023-04-10T14:48:06.885Z,6.88
2023-04-10T14:53:09.808Z,6.43
2023-04-10T14:58:12.034Z,6.47
2023-04-10T15:03:12.774Z,7.97
2023-04-10T15:08:13.404Z,6.13
2023-04-10T15:13:15.442Z,9.15
2023-04-10T15:18:16.205Z,8.27
2023-04-10T15:23:16.800Z,8.23
2023-04-10T15:28:18.732Z,7.63
2023-04-10T15:33:19.512Z,6.85
2023-04-10T15:38:20.347Z,8.18
2023-04-10T15:43:22.276Z,8.30
2023-04-10T15:48:24.490Z,7.18
2023-04-10T15:53:25.284Z,8.55
2023-04-10T15:58:27.308Z,7.85
2023-04-10T16:03:30.165Z,8.57
2023-04-10T16:08:31.295Z,9.10
2023-04-10T16:13:33.296Z,7.65
2023-04-10T16:18:33.968Z,9.80
2023-04-10T16:23:34.599Z,8.80
2023-04-10T16:28:36.528Z,7.90
2023-04-10T16:33:37.183Z,9.77
2023-04-10T16:38:37.855Z,8.32
2023-04-10T16:43:40.066Z,8.48
2023-04-10T16:48:40.775Z,9.35
2023-04-10T16:53:41.382Z,8.63
2023-04-10T16:58:43.394Z,11.73
2023-04-10T17:03:44.122Z,8.07
2023-04-10T17:08:45.113Z,8.57
2023-04-10T17:13:47.078Z,8.95
2023-04-10T17:18:47.804Z,8.55
2023-04-10T17:23:48.835Z,6.78
2023-04-10T17:28:51.138Z,8.60
2023-04-10T17:33:51.797Z,7.90
2023-04-10T17:38:54.146Z,8.38
2023-04-10T17:43:56.268Z,7.78
2023-04-10T17:49:01.259Z,8.02
2023-04-10T17:54:02.214Z,8.30
2023-04-10T17:59:04.223Z,8.80
2023-04-10T18:04:05.135Z,8.32
2023-04-10T18:09:05.914Z,8.48
2023-04-10T18:14:07.818Z,8.43
2023-04-10T18:19:08.583Z,8.73
2023-04-10T18:24:10.695Z,9.00
2023-04-10T18:29:12.606Z,7.90
2023-04-10T18:34:13.451Z,11.50
2023-04-10T18:39:14.303Z,9.68
2023-04-10T18:44:16.307Z,12.48
2023-04-10T18:49:17.009Z,12.88
2023-04-10T18:54:18.050Z,13.48
2023-04-10T18:59:20.161Z,13.10
2023-04-10T19:04:20.892Z,14.32
2023-04-10T19:09:21.531Z,17.02
2023-04-10T19:14:23.486Z,14.50
2023-04-10T19:19:24.172Z,13.88
2023-04-10T19:24:24.783Z,14.90
2023-04-10T19:29:26.737Z,16.83
2023-04-10T19:34:27.392Z,14.27
2023-04-10T19:39:28.177Z,14.88
2023-04-10T19:44:30.116Z,16.13
2023-04-10T19:49:33.001Z,14.05
2023-04-10T19:54:33.661Z,15.50
2023-04-10T19:59:36.697Z,15.35
2023-04-10T20:04:37.501Z,14.32
2023-04-10T20:09:38.231Z,14.98
2023-04-10T20:14:40.237Z,15.23
2023-04-10T20:19:40.976Z,14.50
2023-04-10T20:24:41.601Z,14.25
2023-04-10T20:29:43.627Z,14.80
2023-04-10T20:34:44.376Z,15.43
2023-04-10T20:39:45.278Z,14.73
2023-04-10T20:44:47.238Z,17.20
2023-04-10T20:49:47.847Z,14.93
2023-04-10T20:54:48.448Z,14.50
2023-04-10T20:59:51.949Z,13.45
2023-04-10T21:04:52.922Z,19.60
2023-04-10T21:09:53.552Z,12.35
2023-04-10T21:14:55.480Z,13.23
2023-04-10T21:19:56.069Z,13.77
2023-04-10T21:24:56.848Z,12.80
2023-04-10T21:29:58.766Z,12.73
2023-04-10T21:34:59.549Z,12.80
2023-04-10T21:40:00.378Z,12.13
2023-04-10T21:45:02.395Z,11.93
2023-04-10T21:50:03.178Z,13.52
2023-04-10T21:55:06.188Z,11.20
2023-04-10T22:00:10.244Z,12.63
2023-04-10T22:05:11.364Z,13.75
2023-04-10T22:10:12.047Z,10.23
2023-04-10T22:15:14.141Z,9.75
2023-04-10T22:20:14.760Z,12.90
2023-04-10T22:25:15.640Z,11.52
2023-04-10T22:30:17.809Z,11.75
2023-04-10T22:35:18.353Z,10.55
2023-04-10T22:40:19.065Z,11.25
2023-04-10T22:45:21.602Z,11.73
2023-04-10T22:50:22.269Z,10.80
2023-04-10T22:55:22.933Z,10.63
2023-04-10T23:00:24.937Z,12.30
2023-04-10T23:05:25.519Z,11.07
2023-04-10T23:10:26.199Z,13.10
2023-04-10T23:15:28.184Z,11.82
2023-04-10T23:20:28.780Z,11.68
2023-04-10T23:25:29.443Z,11.77
2023-04-10T23:30:32.379Z,10.80
2023-04-10T23:35:35.029Z,11.73
2023-04-10T23:40:35.748Z,10.25
2023-04-10T23:45:37.640Z,14.20
2023-04-10T23:50:38.249Z,10.23
2023-04-10T23:55:40.078Z,11.65
